Time;durP1;ratioP1;P1;durP2;ratioP2;P2;SDS_P1;SDS_P2;PMS_P1;PMS_P2;Temp;Humidity;BMP_temperature;BMP_pressure;BME280_temperature;BME280_humidity;BME280_pressure;Samples;Min_cycle;Max_cycle;Signal;HPM_P1;HPM_P2
2022/01/29 00:00:04;;;;;;;11.50;9.38;;;3.60;99.90;;;;;;5051290;28;20210;-71
2022/01/29 00:02:32;;;;;;;13.75;9.90;;;3.60;99.90;;;;;;5052241;28;20196;-71
2022/01/29 00:05:00;;;;;;;11.60;9.95;;;3.60;99.90;;;;;;5048893;28;20247;-71
2022/01/29 00:07:27;;;;;;;12.27;9.98;;;3.50;99.90;;;;;;5053594;28;20339;-71
2022/01/29 00:10:01;;;;;;;9.98;8.57;;;3.50;99.90;;;;;;5055904;28;20197;-71
2022/01/29 00:12:28;;;;;;;10.68;8.93;;;3.40;99.90;;;;;;5054954;28;20277;-71
2022/01/29 00:14:55;;;;;;;9.82;8.50;;;3.40;99.90;;;;;;5044576;28;20207;-71
2022/01/29 00:17:22;;;;;;;13.85;9.95;;;3.40;99.90;;;;;;5041415;28;20708;-71
2022/01/29 00:19:49;;;;;;;13.00;9.93;;;3.40;99.90;;;;;;5057793;28;20884;-71
2022/01/29 00:22:17;;;;;;;10.93;9.82;;;3.30;99.90;;;;;;5053077;28;20202;-71
2022/01/29 00:24:44;;;;;;;12.60;9.40;;;3.30;99.90;;;;;;5050822;28;20209;-71
2022/01/29 00:27:11;;;;;;;11.55;10.20;;;3.30;99.90;;;;;;5052436;28;20234;-71
2022/01/29 00:29:40;;;;;;;12.32;10.25;;;3.30;99.90;;;;;;5062653;28;20196;-71
2022/01/29 00:32:08;;;;;;;12.05;9.90;;;3.20;99.90;;;;;;5041825;28;20558;-71
2022/01/29 00:34:35;;;;;;;11.35;10.15;;;3.20;99.90;;;;;;5052184;28;20227;-71
2022/01/29 00:37:03;;;;;;;11.07;9.98;;;3.30;99.90;;;;;;5065641;28;20204;-71
2022/01/29 00:39:32;;;;;;;10.57;9.57;;;3.40;99.90;;;;;;5063662;28;20223;-71
2022/01/29 00:41:59;;;;;;;10.55;9.20;;;3.50;99.90;;;;;;5047909;28;20256;-71
2022/01/29 00:44:26;;;;;;;10.40;9.10;;;3.50;99.90;;;;;;5052495;28;20203;-71
2022/01/29 00:46:54;;;;;;;11.32;9.85;;;3.60;99.90;;;;;;5035552;28;20226;-71
2022/01/29 00:49:20;;;;;;;11.82;9.95;;;3.60;99.90;;;;;;5049716;28;20225;-71
2022/01/29 00:51:47;;;;;;;10.75;9.25;;;3.60;99.90;;;;;;5056852;28;20587;-71
2022/01/29 00:54:14;;;;;;;11.88;9.63;;;3.60;99.90;;;;;;5052154;28;20226;-71
2022/01/29 00:56:42;;;;;;;11.43;10.10;;;3.70;99.90;;;;;;5045852;28;20207;-71
2022/01/29 00:59:09;;;;;;;10.68;9.60;;;3.60;99.90;;;;;;5048553;28;20222;-71
2022/01/29 01:01:37;;;;;;;9.60;8.60;;;3.70;99.90;;;;;;5034856;28;20204;-71
2022/01/29 01:04:04;;;;;;;10.30;8.98;;;3.70;99.90;;;;;;5041582;28;20203;-71
2022/01/29 01:06:31;;;;;;;10.07;9.07;;;3.80;99.90;;;;;;5059113;28;20545;-71
2022/01/29 01:08:58;;;;;;;10.10;9.02;;;3.80;99.90;;;;;;5052604;28;20301;-71
2022/01/29 01:11:25;;;;;;;9.43;8.52;;;3.80;99.90;;;;;;5042216;28;20219;-72
2022/01/29 01:13:53;;;;;;;11.10;9.20;;;3.90;99.90;;;;;;5051062;28;20200;-71
2022/01/29 01:16:20;;;;;;;10.68;9.18;;;3.90;99.90;;;;;;5055330;28;20616;-71
2022/01/29 01:18:48;;;;;;;12.65;10.43;;;3.90;99.90;;;;;;5035281;28;20220;-71
2022/01/29 01:21:15;;;;;;;12.50;9.68;;;3.90;99.90;;;;;;5032094;28;20681;-71
2022/01/29 01:23:42;;;;;;;11.50;9.73;;;3.90;99.90;;;;;;5051240;28;20195;-71
2022/01/29 01:26:09;;;;;;;11.25;10.10;;;3.90;99.90;;;;;;5071802;28;20230;-71
2022/01/29 01:28:36;;;;;;;13.60;9.90;;;3.90;99.90;;;;;;5047985;28;20211;-71
2022/01/29 01:31:04;;;;;;;11.13;9.88;;;3.80;99.90;;;;;;5042340;28;20291;-71
2022/01/29 01:33:31;;;;;;;12.70;9.90;;;3.80;99.90;;;;;;5041413;28;20293;-71
2022/01/29 01:35:59;;;;;;;11.27;10.13;;;3.80;99.90;;;;;;5057940;28;20535;-71
2022/01/29 01:38:34;;;;;;;10.68;9.57;;;3.80;99.90;;;;;;5051584;28;20228;-71
2022/01/29 01:41:06;;;;;;;10.85;9.77;;;3.80;99.90;;;;;;5058499;28;20201;-71
2022/01/29 01:43:33;;;;;;;10.40;9.40;;;3.70;99.90;;;;;;5047495;28;20250;-71
2022/01/29 01:45:59;;;;;;;13.90;10.27;;;3.60;99.90;;;;;;5042448;28;20225;-71
2022/01/29 01:48:28;;;;;;;12.80;9.40;;;3.70;99.90;;;;;;5040247;28;20322;-70
2022/01/29 01:50:55;;;;;;;10.90;9.75;;;3.70;99.90;;;;;;5049213;28;20203;-71
2022/01/29 01:53:24;;;;;;;12.90;10.20;;;3.60;99.90;;;;;;5036674;28;20204;-71
2022/01/29 01:55:51;;;;;;;15.50;11.00;;;3.60;99.90;;;;;;5042756;28;20230;-71
2022/01/29 01:58:18;;;;;;;14.18;11.25;;;3.60;99.90;;;;;;5045585;28;20312;-71
2022/01/29 02:00:45;;;;;;;13.73;10.90;;;3.50;99.90;;;;;;5051181;28;20204;-71
2022/01/29 02:03:12;;;;;;;13.27;11.50;;;3.50;99.90;;;;;;5050082;28;20674;-71
2022/01/29 02:05:41;;;;;;;15.15;11.43;;;3.50;99.90;;;;;;5048968;28;20198;-71
2022/01/29 02:08:08;;;;;;;14.18;11.43;;;3.50;99.90;;;;;;5046034;28;20230;-71
2022/01/29 02:10:35;;;;;;;15.70;12.93;;;3.50;99.90;;;;;;5056117;28;20285;-72
2022/01/29 02:13:04;;;;;;;13.63;11.77;;;3.50;99.90;;;;;;5051956;28;20718;-71
2022/01/29 02:15:32;;;;;;;15.02;11.10;;;3.50;99.90;;;;;;5047770;28;20197;-72
2022/01/29 02:18:00;;;;;;;14.90;12.82;;;3.50;99.90;;;;;;5064926;28;20207;-71
2022/01/29 02:20:29;;;;;;;16.65;12.45;;;3.50;99.90;;;;;;5051046;28;20226;-71
2022/01/29 02:23:00;;;;;;;15.30;12.27;;;3.60;99.90;;;;;;5043843;28;20202;-71
2022/01/29 02:25:32;;;;;;;14.65;12.02;;;3.60;99.90;;;;;;5032948;28;20200;-71
2022/01/29 02:28:01;;;;;;;15.88;12.50;;;3.60;99.90;;;;;;5052517;28;20277;-71
2022/01/29 02:30:32;;;;;;;16.20;12.80;;;3.60;99.90;;;;;;5055135;28;20281;-71
2022/01/29 02:32:59;;;;;;;15.45;12.45;;;3.60;99.90;;;;;;5050320;28;20260;-71
2022/01/29 02:35:26;;;;;;;14.80;11.68;;;3.60;99.90;;;;;;5053984;28;20282;-71
2022/01/29 02:37:53;;;;;;;17.17;12.05;;;3.60;99.90;;;;;;5040629;28;20218;-70
2022/01/29 02:40:22;;;;;;;15.07;12.23;;;3.50;99.90;;;;;;5045391;28;20206;-71
2022/01/29 02:42:51;;;;;;;17.75;13.52;;;3.50;99.90;;;;;;5044592;28;20198;-71
2022/01/29 02:45:18;;;;;;;17.00;12.98;;;3.40;99.90;;;;;;5039549;28;20201;-71
2022/01/29 02:47:45;;;;;;;16.52;12.77;;;3.40;99.90;;;;;;5030841;28;20229;-71
2022/01/29 02:50:12;;;;;;;15.15;12.05;;;3.20;99.90;;;;;;5049368;28;20206;-71
2022/01/29 02:52:39;;;;;;;15.35;13.45;;;3.10;99.90;;;;;;5047338;28;20197;-71
2022/01/29 02:55:07;;;;;;;15.98;13.02;;;3.00;99.90;;;;;;5034104;28;20204;-71
2022/01/29 02:57:35;;;;;;;15.05;12.80;;;2.90;99.90;;;;;;5039950;28;20233;-71
2022/01/29 03:00:03;;;;;;;14.15;12.15;;;2.80;99.90;;;;;;5063240;28;20687;-71
2022/01/29 03:02:30;;;;;;;17.05;12.75;;;2.70;99.90;;;;;;5043326;28;20192;-71
2022/01/29 03:04:57;;;;;;;16.33;12.25;;;2.70;99.90;;;;;;5046977;28;20190;-70
2022/01/29 03:07:24;;;;;;;16.05;11.15;;;2.80;99.90;;;;;;5053621;28;20279;-71
2022/01/29 03:09:51;;;;;;;16.38;11.85;;;2.90;99.90;;;;;;5049926;28;20209;-71
2022/01/29 03:12:18;;;;;;;14.10;11.68;;;2.90;99.90;;;;;;5043933;28;20212;-71
2022/01/29 03:14:46;;;;;;;16.50;12.73;;;3.00;99.90;;;;;;5047106;28;20229;-71
2022/01/29 03:17:13;;;;;;;14.43;12.57;;;3.10;99.90;;;;;;5054168;28;20217;-71
2022/01/29 03:19:40;;;;;;;15.20;13.05;;;3.10;99.90;;;;;;5058462;28;20201;-71
2022/01/29 03:22:07;;;;;;;14.27;11.75;;;3.10;99.90;;;;;;5043307;28;20199;-72
2022/01/29 03:24:35;;;;;;;13.07;11.68;;;3.20;99.90;;;;;;5048304;28;20198;-71
2022/01/29 03:27:02;;;;;;;16.58;12.65;;;3.10;99.90;;;;;;5047630;28;20280;-71
2022/01/29 03:29:30;;;;;;;14.25;11.75;;;3.10;99.90;;;;;;5053667;28;20190;-71
2022/01/29 03:31:58;;;;;;;15.50;12.38;;;3.00;99.90;;;;;;5045219;28;20282;-71
2022/01/29 03:34:25;;;;;;;14.93;11.20;;;3.10;99.90;;;;;;5038907;28;20275;-71
2022/01/29 03:36:54;;;;;;;13.25;11.52;;;3.10;99.90;;;;;;5060242;28;20598;-71
2022/01/29 03:39:23;;;;;;;12.55;10.80;;;3.10;99.90;;;;;;5044873;28;20199;-71
2022/01/29 03:41:50;;;;;;;12.35;11.15;;;3.20;99.90;;;;;;5049329;28;21081;-71
2022/01/29 03:44:17;;;;;;;14.80;11.40;;;3.20;99.90;;;;;;5032871;28;20655;-71
2022/01/29 03:46:45;;;;;;;14.32;11.55;;;3.30;99.90;;;;;;5051942;28;20201;-71
2022/01/29 03:49:13;;;;;;;15.05;12.38;;;3.30;99.90;;;;;;5049603;28;20217;-71
2022/01/29 03:51:40;;;;;;;13.63;11.43;;;3.40;99.90;;;;;;5036746;28;20564;-71
2022/01/29 03:54:07;;;;;;;12.00;10.80;;;3.40;99.90;;;;;;5043537;28;20203;-71
2022/01/29 03:56:34;;;;;;;12.98;11.43;;;3.50;99.90;;;;;;5052450;28;20199;-71
2022/01/29 03:59:01;;;;;;;13.82;11.30;;;3.50;99.90;;;;;;5048224;28;20207;-71
2022/01/29 04:01:28;;;;;;;11.60;10.40;;;3.60;99.90;;;;;;5039364;28;20245;-71
2022/01/29 04:03:57;;;;;;;13.23;10.88;;;3.60;99.90;;;;;;5055157;28;20293;-71
2022/01/29 04:06:26;;;;;;;15.38;10.75;;;3.70;99.90;;;;;;5061226;28;20234;-71
2022/01/29 04:08:53;;;;;;;11.63;10.35;;;3.70;99.90;;;;;;5049156;28;20233;-71
2022/01/29 04:11:22;;;;;;;12.57;10.85;;;3.80;99.90;;;;;;5040198;28;20198;-71
2022/01/29 04:13:49;;;;;;;15.98;10.75;;;3.80;99.90;;;;;;5045201;28;20205;-71
2022/01/29 04:16:18;;;;;;;14.05;10.80;;;3.80;99.90;;;;;;5046249;28;20558;-71
2022/01/29 04:18:44;;;;;;;13.10;10.23;;;3.90;99.90;;;;;;5051288;28;20592;-71
2022/01/29 04:21:11;;;;;;;12.63;10.02;;;3.90;99.90;;;;;;5048952;28;20207;-71
2022/01/29 04:23:40;;;;;;;12.07;10.77;;;3.80;99.90;;;;;;5033834;28;20200;-71
2022/01/29 04:26:07;;;;;;;12.73;10.95;;;3.90;99.90;;;;;;5045116;28;20229;-71
2022/01/29 04:28:38;;;;;;;12.82;10.88;;;3.80;99.90;;;;;;5055968;28;20236;-71
2022/01/29 04:31:10;;;;;;;12.55;10.85;;;3.80;99.90;;;;;;5073220;28;20186;-71
2022/01/29 04:33:37;;;;;;;11.90;10.63;;;3.80;99.90;;;;;;5063559;28;20199;-71
2022/01/29 04:36:06;;;;;;;12.60;10.85;;;3.80;99.90;;;;;;5040608;28;20655;-71
2022/01/29 04:38:33;;;;;;;11.55;10.35;;;3.80;99.90;;;;;;5036868;28;20223;-71
2022/01/29 04:41:04;;;;;;;11.30;10.15;;;3.80;99.90;;;;;;5047704;28;20618;-71
2022/01/29 04:43:32;;;;;;;13.35;12.05;;;3.90;99.90;;;;;;5049106;28;20198;-71
2022/01/29 04:45:59;;;;;;;12.02;10.52;;;3.90;99.90;;;;;;5032596;28;20246;-71
2022/01/29 04:48:27;;;;;;;11.13;10.00;;;3.90;99.90;;;;;;5032149;28;20240;-70
2022/01/29 04:50:54;;;;;;;11.73;9.85;;;3.80;99.90;;;;;;5047128;28;20296;-71
2022/01/29 04:53:21;;;;;;;12.23;10.93;;;3.80;99.90;;;;;;5043220;28;20216;-71
2022/01/29 04:55:48;;;;;;;12.02;10.40;;;3.80;99.90;;;;;;5036486;28;20204;-71
2022/01/29 04:58:17;;;;;;;13.98;12.48;;;3.80;99.90;;;;;;5042669;28;20224;-71
2022/01/29 05:00:43;;;;;;;16.02;13.50;;;3.80;99.90;;;;;;5052036;28;20669;-71
2022/01/29 05:03:13;;;;;;;15.65;13.95;;;3.80;99.90;;;;;;5048098;28;20206;-71
2022/01/29 05:05:41;;;;;;;17.35;15.57;;;3.80;99.90;;;;;;5065278;28;20197;-71
2022/01/29 05:08:11;;;;;;;18.48;14.98;;;3.70;99.90;;;;;;5043248;28;20682;-71
2022/01/29 05:10:38;;;;;;;19.83;16.05;;;3.70;99.90;;;;;;5048292;28;20257;-71
2022/01/29 05:13:07;;;;;;;18.10;15.52;;;3.70;99.90;;;;;;5033766;28;20283;-71
2022/01/29 05:15:40;;;;;;;18.92;16.88;;;3.60;99.90;;;;;;5036034;28;20199;-71
2022/01/29 05:29:08;;;;;;;22.88;18.02;;;3.30;99.90;;;;;;5034021;28;20633;-71
2022/01/29 05:31:36;;;;;;;20.90;18.02;;;3.20;99.90;;;;;;5051285;28;20632;-71
2022/01/29 05:34:03;;;;;;;23.70;18.38;;;3.20;99.90;;;;;;5052346;28;20200;-71
2022/01/29 05:36:31;;;;;;;20.13;18.02;;;3.10;99.90;;;;;;5052505;28;20252;-71
2022/01/29 05:38:58;;;;;;;23.13;18.77;;;3.10;99.90;;;;;;5049742;28;20559;-71
2022/01/29 05:41:25;;;;;;;19.30;16.95;;;3.00;99.90;;;;;;5051371;28;20674;-70
2022/01/29 05:43:52;;;;;;;22.15;18.83;;;2.90;99.90;;;;;;5045159;28;20200;-71
2022/01/29 05:46:19;;;;;;;19.70;17.67;;;2.80;99.90;;;;;;5045552;28;20195;-71
2022/01/29 05:48:47;;;;;;;20.63;18.02;;;2.80;99.90;;;;;;5034456;28;20368;-70
2022/01/29 05:51:14;;;;;;;20.92;17.85;;;2.80;99.90;;;;;;5048402;28;20203;-71
2022/01/29 05:53:41;;;;;;;20.50;16.70;;;2.80;99.90;;;;;;5035718;28;20222;-70
2022/01/29 05:56:08;;;;;;;19.35;16.45;;;2.70;99.90;;;;;;5050914;28;20889;-71
2022/01/29 05:58:36;;;;;;;19.40;16.50;;;2.70;99.90;;;;;;5050748;28;20224;-71
2022/01/29 06:01:03;;;;;;;20.65;17.75;;;2.60;99.90;;;;;;5044996;28;20208;-71
2022/01/29 06:03:30;;;;;;;20.45;16.80;;;2.70;99.90;;;;;;5051731;28;20667;-71
2022/01/29 06:05:59;;;;;;;18.70;16.40;;;2.60;99.90;;;;;;5050204;28;20194;-71
2022/01/29 06:08:26;;;;;;;22.50;17.83;;;2.60;99.90;;;;;;5049249;28;20227;-71
2022/01/29 06:10:53;;;;;;;20.30;16.08;;;2.60;99.90;;;;;;5044446;28;20206;-71
2022/01/29 06:13:20;;;;;;;21.25;16.85;;;2.60;99.90;;;;;;5045084;28;20199;-71
2022/01/29 06:15:49;;;;;;;20.60;17.52;;;2.60;99.90;;;;;;5031191;28;20660;-71
2022/01/29 06:18:19;;;;;;;19.20;15.82;;;2.60;99.90;;;;;;5046685;28;20337;-71
2022/01/29 06:20:47;;;;;;;19.13;16.15;;;2.60;99.90;;;;;;5043717;28;20199;-71
2022/01/29 06:23:17;;;;;;;19.85;16.80;;;2.60;99.90;;;;;;5062780;28;20213;-71
2022/01/29 06:25:44;;;;;;;19.30;16.90;;;2.50;99.90;;;;;;5031183;28;20352;-71
2022/01/29 06:28:12;;;;;;;20.65;17.02;;;2.50;99.90;;;;;;5044617;28;20286;-72
2022/01/29 06:30:39;;;;;;;21.25;17.20;;;2.60;99.90;;;;;;5039931;28;20200;-71
2022/01/29 06:33:10;;;;;;;21.33;16.38;;;2.50;99.90;;;;;;5064587;28;20200;-72
2022/01/29 06:35:38;;;;;;;20.60;17.35;;;2.40;99.90;;;;;;5056727;28;20197;-71
2022/01/29 06:38:05;;;;;;;20.45;16.38;;;2.40;99.90;;;;;;5046896;28;20307;-71
2022/01/29 06:40:34;;;;;;;19.75;15.63;;;2.30;99.90;;;;;;5051085;28;20197;-71
2022/01/29 06:43:03;;;;;;;19.80;16.95;;;2.30;99.90;;;;;;5054327;28;20657;-72
2022/01/29 06:45:30;;;;;;;18.70;16.75;;;2.40;99.90;;;;;;5053869;28;20234;-71
2022/01/29 06:47:57;;;;;;;21.15;17.05;;;2.40;99.90;;;;;;5045281;28;21505;-72
2022/01/29 06:50:25;;;;;;;20.23;16.90;;;2.40;99.90;;;;;;5051216;28;20565;-72
2022/01/29 06:52:52;;;;;;;20.50;16.30;;;2.40;99.90;;;;;;5034703;28;20203;-71
2022/01/29 06:55:20;;;;;;;22.45;17.70;;;2.30;99.90;;;;;;5047729;28;20301;-71
2022/01/29 06:57:49;;;;;;;21.05;17.73;;;2.30;99.90;;;;;;5037577;28;20226;-71
2022/01/29 07:00:16;;;;;;;21.20;18.40;;;2.20;99.90;;;;;;5036140;28;20229;-71
2022/01/29 07:02:43;;;;;;;22.40;18.88;;;2.30;99.90;;;;;;5044646;28;20201;-71
2022/01/29 07:05:12;;;;;;;24.00;18.73;;;2.20;99.90;;;;;;5048835;28;20205;-72
2022/01/29 07:07:39;;;;;;;23.42;19.10;;;2.20;99.90;;;;;;5046547;28;20402;-72
2022/01/29 07:10:08;;;;;;;26.77;18.30;;;2.20;99.90;;;;;;5045985;28;20715;-72
2022/01/29 07:12:38;;;;;;;21.90;17.80;;;2.20;99.90;;;;;;5048658;28;20217;-71
2022/01/29 07:15:07;;;;;;;23.00;18.27;;;2.30;99.90;;;;;;5048549;28;20608;-72
2022/01/29 07:17:35;;;;;;;20.98;17.67;;;2.40;99.90;;;;;;5043346;28;20600;-72
2022/01/29 07:20:03;;;;;;;22.20;18.55;;;2.40;99.90;;;;;;5047753;28;20281;-72
2022/01/29 07:22:30;;;;;;;21.75;18.35;;;2.30;99.90;;;;;;5042443;28;20202;-72
2022/01/29 07:24:57;;;;;;;20.77;17.83;;;2.40;99.90;;;;;;5044978;28;20206;-72
2022/01/29 07:27:24;;;;;;;20.20;18.05;;;2.40;99.90;;;;;;5037606;28;20218;-72
2022/01/29 07:29:51;;;;;;;21.70;18.17;;;2.40;99.90;;;;;;5040115;28;20226;-72
2022/01/29 07:32:19;;;;;;;21.83;18.08;;;2.50;99.90;;;;;;5053600;28;20205;-72
2022/01/29 07:34:46;;;;;;;20.85;18.10;;;2.50;99.90;;;;;;5054127;28;20205;-72
2022/01/29 07:37:13;;;;;;;21.83;17.20;;;2.50;99.90;;;;;;5047366;28;20299;-72
2022/01/29 07:39:40;;;;;;;22.02;17.10;;;2.50;99.90;;;;;;5044237;28;20210;-72
2022/01/29 07:42:08;;;;;;;19.80;16.08;;;2.60;99.90;;;;;;5038692;28;20286;-73
2022/01/29 07:44:34;;;;;;;20.58;15.30;;;2.70;99.90;;;;;;5050037;28;20193;-72
2022/01/29 07:47:01;;;;;;;18.35;16.45;;;2.80;99.90;;;;;;5044098;28;20213;-72
2022/01/29 07:49:30;;;;;;;17.90;16.00;;;2.80;99.90;;;;;;5051168;28;20224;-77
2022/01/29 07:51:57;;;;;;;17.02;14.38;;;2.80;99.90;;;;;;5048926;28;20229;-80
2022/01/29 07:54:24;;;;;;;18.30;15.55;;;2.80;99.90;;;;;;5050088;28;20204;-84
2022/01/29 07:56:51;;;;;;;11.93;10.73;;;2.90;99.90;;;;;;5056164;28;20206;-80
2022/01/29 07:59:18;;;;;;;14.90;11.75;;;2.90;99.90;;;;;;5060603;28;20208;-88
2022/01/29 08:01:45;;;;;;;12.75;10.60;;;2.90;99.90;;;;;;5068035;28;20228;-88
2022/01/29 08:04:12;;;;;;;13.55;11.10;;;2.90;99.90;;;;;;5058333;28;20257;-78
2022/01/29 08:06:41;;;;;;;14.82;10.55;;;2.90;99.90;;;;;;5051031;28;20215;-75
2022/01/29 08:09:08;;;;;;;11.70;10.50;;;3.00;99.90;;;;;;5064485;28;20204;-85
2022/01/29 08:11:36;;;;;;;10.52;9.48;;;3.00;99.90;;;;;;5055015;28;20669;-72
2022/01/29 08:14:03;;;;;;;10.50;9.40;;;3.10;99.90;;;;;;5040782;28;20208;-72
2022/01/29 08:16:30;;;;;;;11.15;9.15;;;3.10;99.90;;;;;;5035875;28;20729;-73
2022/01/29 08:18:57;;;;;;;10.07;9.07;;;3.20;99.90;;;;;;5049932;28;20199;-73
2022/01/29 08:21:24;;;;;;;10.77;9.30;;;3.30;99.90;;;;;;5044190;28;20635;-75
2022/01/29 08:23:53;;;;;;;10.02;8.30;;;3.30;99.90;;;;;;5038088;28;20662;-72
2022/01/29 08:26:20;;;;;;;7.70;7.00;;;3.40;99.90;;;;;;5047186;28;20950;-71
2022/01/29 08:28:47;;;;;;;10.27;8.15;;;3.50;99.90;;;;;;5046237;28;20224;-73
2022/01/29 08:31:14;;;;;;;7.05;6.40;;;3.60;99.90;;;;;;5032433;28;20257;-73
2022/01/29 08:33:41;;;;;;;8.00;6.55;;;3.70;99.90;;;;;;5041657;28;20205;-73
2022/01/29 08:36:08;;;;;;;6.93;6.22;;;3.80;99.90;;;;;;5049515;28;20192;-73
2022/01/29 08:38:35;;;;;;;8.98;7.45;;;4.00;99.90;;;;;;5048779;28;20205;-73
2022/01/29 08:41:05;;;;;;;7.13;6.43;;;4.10;99.90;;;;;;5043274;28;20201;-72
2022/01/29 08:43:33;;;;;;;7.60;6.25;;;4.30;99.90;;;;;;5049386;28;20696;-73
2022/01/29 08:46:00;;;;;;;7.45;6.15;;;4.40;99.90;;;;;;5047059;28;20199;-73
2022/01/29 08:48:28;;;;;;;6.93;6.22;;;4.50;99.90;;;;;;5052801;28;20276;-74
2022/01/29 08:50:55;;;;;;;6.80;6.20;;;4.40;99.90;;;;;;5046037;28;20202;-76
2022/01/29 08:53:22;;;;;;;6.57;5.40;;;4.40;99.90;;;;;;5043395;28;20203;-75
2022/01/29 08:55:49;;;;;;;6.13;5.53;;;4.40;99.90;;;;;;5048172;28;20632;-74
2022/01/29 08:58:17;;;;;;;5.90;5.28;;;4.30;99.90;;;;;;5046399;28;20277;-75
2022/01/29 09:00:46;;;;;;;5.38;4.82;;;4.30;99.90;;;;;;5046293;28;20278;-75
2022/01/29 09:03:14;;;;;;;5.75;5.15;;;4.30;99.90;;;;;;5046947;28;20198;-74
2022/01/29 09:05:43;;;;;;;5.30;4.85;;;4.30;99.90;;;;;;5045684;28;21032;-75
2022/01/29 09:08:10;;;;;;;4.43;3.92;;;4.30;99.90;;;;;;5050784;28;20221;-75
2022/01/29 09:10:37;;;;;;;4.70;4.30;;;4.40;99.90;;;;;;5038240;28;20298;-74
2022/01/29 09:13:04;;;;;;;4.65;4.25;;;4.40;99.90;;;;;;5044111;28;20663;-75
2022/01/29 09:15:33;;;;;;;5.35;3.88;;;4.50;99.90;;;;;;5040490;28;20206;-75
2022/01/29 09:18:00;;;;;;;5.07;4.57;;;4.60;99.90;;;;;;5047033;28;20220;-76
2022/01/29 09:20:27;;;;;;;4.85;4.07;;;4.70;99.90;;;;;;5051216;28;20560;-75
2022/01/29 09:22:54;;;;;;;4.32;3.65;;;4.70;99.90;;;;;;5040583;28;20201;-75
2022/01/29 09:25:21;;;;;;;5.63;4.00;;;4.80;99.90;;;;;;5044562;28;20197;-75
2022/01/29 09:27:48;;;;;;;4.55;3.80;;;4.80;99.90;;;;;;5038745;28;20213;-74
2022/01/29 09:30:15;;;;;;;5.30;4.00;;;4.90;99.90;;;;;;5039315;28;20219;-75
2022/01/29 09:32:44;;;;;;;5.65;4.18;;;5.00;99.90;;;;;;5046055;28;20209;-75
2022/01/29 09:35:11;;;;;;;4.10;3.70;;;5.20;99.90;;;;;;5040681;28;20673;-74
2022/01/29 09:37:38;;;;;;;5.53;3.85;;;5.30;99.90;;;;;;5035407;28;20213;-75
2022/01/29 09:40:06;;;;;;;5.60;3.90;;;5.40;99.90;;;;;;5040815;28;20190;-75
2022/01/29 09:42:35;;;;;;;6.40;3.75;;;5.50;99.90;;;;;;5046897;28;20189;-75
2022/01/29 09:45:02;;;;;;;4.55;3.72;;;5.60;99.90;;;;;;5043299;28;20272;-75
2022/01/29 09:47:29;;;;;;;5.10;3.60;;;5.60;99.90;;;;;;5050589;28;20283;-77
2022/01/29 09:49:58;;;;;;;3.30;3.00;;;5.60;99.90;;;;;;5043143;28;20256;-74
2022/01/29 09:52:25;;;;;;;3.60;3.20;;;5.50;99.90;;;;;;5047527;28;20674;-75
2022/01/29 09:54:52;;;;;;;3.90;3.50;;;5.70;99.90;;;;;;5045986;28;20226;-74
2022/01/29 09:57:19;;;;;;;5.75;3.47;;;5.80;99.90;;;;;;5041404;28;20217;-75
2022/01/29 09:59:47;;;;;;;3.83;3.25;;;5.80;99.90;;;;;;5043350;28;20193;-75
2022/01/29 10:02:16;;;;;;;3.90;3.60;;;5.90;99.90;;;;;;5038117;28;20197;-75
2022/01/29 10:04:49;;;;;;;4.28;3.88;;;6.00;99.90;;;;;;5033035;28;20538;-75
2022/01/29 10:07:20;;;;;;;3.83;3.53;;;6.00;99.90;;;;;;5045204;28;20303;-74
2022/01/29 10:09:47;;;;;;;4.18;3.58;;;5.90;99.90;;;;;;5035740;28;20224;-75
2022/01/29 10:12:20;;;;;;;4.25;3.80;;;5.90;99.90;;;;;;5033202;28;20196;-75
2022/01/29 10:14:53;;;;;;;4.47;4.07;;;5.90;99.90;;;;;;5032139;28;20201;-74
2022/01/29 10:17:40;;;;;;;3.42;3.13;;;5.80;99.90;;;;;;5033752;28;20217;-75
2022/01/29 10:20:10;;;;;;;6.00;3.72;;;5.90;99.90;;;;;;5036469;28;20628;-75
2022/01/29 10:22:39;;;;;;;3.45;2.97;;;6.10;99.90;;;;;;5033535;28;20208;-74
2022/01/29 10:25:11;;;;;;;4.55;3.50;;;6.20;99.90;;;;;;5026489;28;20224;-75
2022/01/29 10:27:38;;;;;;;4.78;3.42;;;6.30;99.90;;;;;;5028263;28;20317;-75
2022/01/29 10:30:09;;;;;;;4.00;3.70;;;6.40;99.90;;;;;;5030370;28;20237;-75
2022/01/29 10:32:36;;;;;;;4.20;3.80;;;6.50;99.90;;;;;;5031243;28;20288;-75
2022/01/29 10:35:03;;;;;;;4.25;3.85;;;6.50;99.90;;;;;;5030083;28;20190;-76
2022/01/29 10:37:30;;;;;;;3.42;3.17;;;6.50;99.90;;;;;;5027950;28;20213;-75
2022/01/29 10:40:00;;;;;;;4.22;3.33;;;6.60;99.90;;;;;;5033334;28;20583;-75
2022/01/29 10:42:30;;;;;;;5.30;3.70;;;6.60;99.90;;;;;;5024852;28;20657;-75
2022/01/29 10:45:01;;;;;;;3.35;3.05;;;6.60;99.90;;;;;;5034099;28;20209;-75
2022/01/29 10:47:29;;;;;;;3.65;3.35;;;6.50;99.90;;;;;;5032981;28;20209;-75
2022/01/29 10:49:59;;;;;;;4.85;4.22;;;6.40;99.90;;;;;;5033783;28;20692;-75
2022/01/29 10:52:28;;;;;;;3.70;3.28;;;6.30;99.90;;;;;;5029823;28;20251;-75
2022/01/29 10:55:02;;;;;;;4.40;4.00;;;6.40;99.90;;;;;;5030173;28;20640;-75
2022/01/29 10:57:35;;;;;;;4.22;3.83;;;6.40;99.90;;;;;;5026679;28;20232;-75
2022/01/29 11:00:05;;;;;;;5.38;3.78;;;6.50;99.90;;;;;;5031340;28;20660;-75
2022/01/29 11:02:32;;;;;;;4.38;3.50;;;6.50;99.90;;;;;;5032145;28;20197;-75
2022/01/29 11:05:01;;;;;;;4.20;3.70;;;6.60;99.90;;;;;;5030157;28;20312;-75
2022/01/29 11:07:29;;;;;;;6.28;3.83;;;6.60;99.90;;;;;;5029641;28;20233;-76
2022/01/29 11:10:01;;;;;;;4.03;3.63;;;6.70;99.90;;;;;;5028845;28;20226;-76
2022/01/29 11:12:30;;;;;;;4.25;3.90;;;6.70;99.90;;;;;;5033477;28;20206;-75
2022/01/29 11:14:59;;;;;;;3.85;3.50;;;6.70;99.90;;;;;;5027366;28;20332;-75
2022/01/29 11:17:27;;;;;;;3.97;3.60;;;6.70;99.90;;;;;;5032032;28;20306;-75
2022/01/29 11:19:54;;;;;;;4.05;3.42;;;6.70;99.90;;;;;;5030187;28;20201;-75
2022/01/29 11:22:23;;;;;;;3.63;3.22;;;6.80;99.90;;;;;;5031766;28;20672;-75
2022/01/29 11:24:57;;;;;;;4.20;3.80;;;6.80;99.90;;;;;;5031897;28;20225;-74
2022/01/29 11:27:28;;;;;;;4.30;3.58;;;6.90;99.90;;;;;;5036404;28;20225;-86
2022/01/29 11:30:04;;;;;;;3.97;3.05;;;7.00;99.90;;;;;;5077372;28;20973;-75
2022/01/29 11:32:35;;;;;;;3.53;3.05;;;6.80;99.90;;;;;;5077993;28;20191;-75
2022/01/29 11:35:05;;;;;;;3.63;3.08;;;6.70;99.90;;;;;;5072972;28;20276;-74
2022/01/29 11:37:41;;;;;;;3.38;3.08;;;6.70;99.90;;;;;;5071048;28;20694;-74
2022/01/29 11:40:27;;;;;;;3.75;3.35;;;6.70;99.90;;;;;;5072325;28;20206;-74
2022/01/29 11:43:13;;;;;;;3.78;2.90;;;6.60;99.90;;;;;;5069953;28;20189;-75
2022/01/29 11:45:48;;;;;;;3.85;3.40;;;6.60;99.90;;;;;;5077488;28;20223;-74
2022/01/29 11:48:51;;;;;;;3.78;3.45;;;6.70;99.90;;;;;;5075451;28;20196;-74
2022/01/29 11:51:40;;;;;;;5.70;3.10;;;6.80;99.90;;;;;;5077761;28;20270;-74
2022/01/29 11:54:07;;;;;;;3.60;2.80;;;6.70;99.90;;;;;;5084199;28;20599;-75
2022/01/29 11:56:36;;;;;;;3.88;2.72;;;6.70;99.90;;;;;;5080445;28;20211;-70
2022/01/29 11:59:27;;;;;;;4.97;2.80;;;6.80;99.90;;;;;;5074315;28;20345;-70
2022/01/29 12:02:00;;;;;;;2.72;2.50;;;6.90;99.90;;;;;;5073945;28;20589;-73
2022/01/29 12:05:04;;;;;;;4.22;2.63;;;7.00;99.90;;;;;;5075719;28;20193;-76
2022/01/29 12:07:34;;;;;;;3.20;2.90;;;7.00;99.90;;;;;;5077589;28;20216;-88
2022/01/29 12:10:05;;;;;;;2.80;2.50;;;7.10;99.90;;;;;;5068364;28;20216;-89
2022/01/29 12:12:34;;;;;;;4.22;3.17;;;7.20;99.90;;;;;;5087281;28;20198;-75
2022/01/29 12:15:35;;;;;;;5.00;3.40;;;7.30;99.90;;;;;;5073660;28;20258;-83
2022/01/29 12:18:07;;;;;;;2.95;2.65;;;7.30;99.90;;;;;;5070588;28;20203;-83
2022/01/29 12:20:34;;;;;;;3.85;3.25;;;7.50;99.90;;;;;;5071599;28;20207;-75
2022/01/29 12:23:03;;;;;;;3.20;2.90;;;7.60;99.90;;;;;;5075948;28;20287;-74
2022/01/29 12:25:31;;;;;;;3.40;3.10;;;7.60;99.90;;;;;;5074156;28;20201;-72
2022/01/29 12:27:59;;;;;;;3.75;2.88;;;7.50;99.90;;;;;;5075863;28;20208;-73
2022/01/29 12:30:29;;;;;;;4.28;3.00;;;7.60;99.90;;;;;;5074573;28;20332;-74
2022/01/29 12:33:03;;;;;;;4.65;3.60;;;7.70;99.90;;;;;;5072918;28;20258;-76
2022/01/29 12:35:38;;;;;;;3.03;2.72;;;7.90;99.90;;;;;;5073025;28;20201;-74
2022/01/29 12:38:05;;;;;;;2.78;2.38;;;7.90;99.90;;;;;;5076825;28;20199;-73
2022/01/29 12:40:38;;;;;;;3.15;2.47;;;8.00;99.90;;;;;;5078936;28;20199;-74
2022/01/29 12:43:20;;;;;;;7.88;5.55;;;7.90;99.90;;;;;;5091229;28;20816;-74
2022/01/29 12:45:48;;;;;;;6.50;5.90;;;7.90;99.90;;;;;;5087322;28;20227;-74
2022/01/29 12:48:18;;;;;;;5.45;4.95;;;7.90;99.90;;;;;;5082877;28;20739;-75
2022/01/29 12:50:45;;;;;;;2.88;2.67;;;7.80;99.90;;;;;;5072635;28;20316;-74
2022/01/29 12:53:14;;;;;;;2.03;1.83;;;7.90;99.90;;;;;;5079585;28;20250;-74
2022/01/29 12:55:41;;;;;;;2.60;2.40;;;7.80;99.90;;;;;;5084305;28;20224;-74
2022/01/29 12:58:08;;;;;;;2.30;2.10;;;7.60;99.90;;;;;;5078958;28;20227;-75
2022/01/29 13:00:37;;;;;;;2.13;1.80;;;7.50;99.90;;;;;;5076159;28;20282;-75
2022/01/29 13:03:09;;;;;;;2.78;2.33;;;7.40;99.90;;;;;;5084211;28;20199;-74